Arctic Taglu — CY8968 — position and weather

sailwx.info

Track history (hours):
 
Tides and Currents Weather Stations Pressure Air Temp Water Temp Dewpoint Dewpoint Depression Visibility Wind Speed Wind Dir Waves Ship Positions

Arctic Taglu

Last reported at 2015-Aug-31 04:33 UTC. Time now 2015-Aug-31 04:45 UTC.
Position N 49°09' W 123°02'.

Length 33 m; draft 6 m.

Type: Tug. MMSI: 316003483.

Date/timePositionNaut miles runAvg speedWind from/ knotsBaromVisibWave heightAir tempDewpointWater temp
2015-Aug-31 04:33N 49°09' W 123°02'0 0.0
2015-Aug-31 03:33N 49°09' W 123°02'0 0.0
2015-Aug-31 02:33N 49°09' W 123°02'0 0.0
2015-Aug-31 01:33N 49°09' W 123°02'0 0.0
2015-Aug-31 00:33N 49°09' W 123°02'0 0.0
2015-Aug-30 23:33N 49°09' W 123°02'0 0.0
2015-Aug-30 22:33N 49°09' W 123°02'0 0.0
2015-Aug-30 21:33N 49°09' W 123°02'0 0.0
2015-Aug-30 20:33N 49°09' W 123°02'0 0.0
2015-Aug-30 19:33N 49°09' W 123°02'0 0.0
2015-Aug-30 16:20N 49°09' W 123°02'0 0.0
2015-Aug-30 15:32N 49°09' W 123°02'0 0.0
2015-Aug-30 13:14N 49°09' W 123°02'0 0.0
2015-Aug-30 12:14N 49°09' W 123°02'0 0.0
2015-Aug-30 11:27N 49°09' W 123°02'0 0.0
2015-Aug-30 05:29N 49°09' W 123°02'0 0.0
2015-Aug-30 04:26N 49°09' W 123°02'0 0.0
2015-Aug-30 03:28N 49°09' W 123°02'0 0.0
2015-Aug-30 02:20N 49°09' W 123°02'0 0.0
2015-Aug-30 01:33N 49°09' W 123°02'0 0.0
2015-Aug-29 22:21N 49°09' W 123°02'0 0.0
2015-Aug-29 21:10N 49°09' W 123°02'0 0.0
2015-Aug-29 20:26N 49°09' W 123°02'0 0.0
2015-Aug-29 19:34N 49°09' W 123°02'0 0.0
2015-Aug-29 18:33N 49°09' W 123°02'0 0.0
2015-Aug-29 17:33N 49°09' W 123°02'2 1.7
2015-Aug-29 16:33N 49°08' W 123°04'6 6.3
2015-Aug-29 15:33N 49°08' W 123°14'8 7.9
2015-Aug-29 14:33N 49°01' W 123°19'9 9.2
2015-Aug-29 13:33N 48°52' W 123°19'8 8.2
2015-Aug-29 12:33N 48°44' W 123°24'3 2.4
2015-Aug-29 11:29N 48°41' W 123°24'0 0.0
2015-Aug-29 10:28N 48°41' W 123°24'5 5.4
2015-Aug-29 09:33N 48°46' W 123°21'8 7.6
2015-Aug-29 08:33N 48°53' W 123°18'9 9.4
2015-Aug-29 07:34N 49°02' W 123°21'8 8.1
2015-Aug-29 06:33N 49°07' W 123°10'6 5.8
2015-Aug-29 05:33N 49°09' W 123°02'0 0.0
2015-Aug-29 04:33N 49°09' W 123°02'0 0.0
2015-Aug-29 03:33N 49°09' W 123°02'0 0.0
2015-Aug-29 02:33N 49°09' W 123°02'0 0.0
2015-Aug-29 01:33N 49°09' W 123°02'0 0.0
2015-Aug-29 00:33N 49°09' W 123°02'0 0.0
2015-Aug-28 23:33N 49°09' W 123°02'0 0.0
2015-Aug-28 22:33N 49°09' W 123°02'0 0.0
2015-Aug-28 21:34N 49°09' W 123°02'0 0.0
2015-Aug-28 20:33N 49°09' W 123°02'0 0.0
2015-Aug-28 19:33N 49°09' W 123°02'0 0.0
2015-Aug-28 18:34N 49°09' W 123°02'0 0.0
2015-Aug-28 17:33N 49°09' W 123°02'0 0.0
2015-Aug-28 16:34N 49°09' W 123°02'4 4.0
2015-Aug-28 15:33N 49°07' W 123°08'6 6.2
2015-Aug-28 14:34N 49°07' W 123°17'9 8.5
2015-Aug-28 13:33N 48°58' W 123°19'8 7.5
2015-Aug-28 12:33N 48°51' W 123°21'9 9.5
2015-Aug-28 11:34N 48°42' W 123°24'0 0.3
2015-Aug-28 10:33N 48°41' W 123°24'5 4.6
2015-Aug-28 09:34N 48°45' W 123°21'8 7.8
2015-Aug-28 08:33N 48°53' W 123°18'9 9.4
2015-Aug-28 07:33N 49°02' W 123°20'8 7.6
2015-Aug-28 06:34N 49°07' W 123°11'6 6.2
2015-Aug-28 05:33N 49°09' W 123°02'0 0.1
2015-Aug-28 04:33N 49°09' W 123°02'0 0.0
2015-Aug-28 03:33N 49°09' W 123°02'0 0.0
2015-Aug-28 02:33N 49°09' W 123°02'0 0.0
2015-Aug-28 01:33N 49°09' W 123°02'0 0.0
2015-Aug-28 00:33N 49°09' W 123°02'0 0.0
2015-Aug-27 23:33N 49°09' W 123°02'0 0.0
2015-Aug-27 22:33N 49°09' W 123°02'0 0.0
2015-Aug-27 21:33N 49°09' W 123°02'0 0.0
2015-Aug-27 20:33N 49°09' W 123°02'0 0.0
2015-Aug-27 19:33N 49°09' W 123°02'0 0.0
2015-Aug-27 18:33N 49°09' W 123°02'0 0.0
2015-Aug-27 17:33N 49°09' W 123°02'0 0.5
2015-Aug-27 16:34N 49°08' W 123°03'6 5.6
2015-Aug-27 15:33N 49°07' W 123°11'5 4.7
2015-Aug-27 14:34N 49°06' W 123°18'9 9.0
2015-Aug-27 13:33N 48°57' W 123°19'7 7.2
2015-Aug-27 12:33N 48°50' W 123°21'9 9.0
2015-Aug-27 11:34N 48°41' W 123°24'0 0.1
2015-Aug-27 10:34N 48°41' W 123°24'5 4.8
2015-Aug-27 09:33N 48°45' W 123°21'9 8.6
2015-Aug-27 08:34N 48°54' W 123°18'10 9.6
2015-Aug-27 07:33N 49°03' W 123°20'9 8.8
2015-Aug-27 06:33N 49°06' W 123°08'4 4.2
2015-Aug-27 05:33N 49°09' W 123°02'0 0.0
2015-Aug-27 04:33N 49°09' W 123°02'0 0.0
2015-Aug-27 03:33N 49°09' W 123°02'0 0.0
2015-Aug-27 02:33N 49°09' W 123°02'0 0.0
2015-Aug-27 01:33N 49°09' W 123°02'0 0.0
2015-Aug-27 00:34N 49°09' W 123°02'0 0.0
2015-Aug-26 23:33N 49°09' W 123°02'0 0.0
2015-Aug-26 22:33N 49°09' W 123°02'0 0.0
2015-Aug-26 21:33N 49°09' W 123°02'0 0.0
2015-Aug-26 20:33N 49°09' W 123°02'0 0.0
2015-Aug-26 19:33N 49°09' W 123°02'0 0.0
2015-Aug-26 18:33N 49°09' W 123°02'0 0.0
2015-Aug-26 17:33N 49°09' W 123°02'0 0.0
2015-Aug-26 16:33N 49°09' W 123°02'6 5.8
2015-Aug-26 15:33N 49°07' W 123°11'6 5.6
2015-Aug-26 14:33N 49°06' W 123°19'9 9.3
2015-Aug-26 13:33N 48°57' W 123°19'7 7.2
2015-Aug-26 12:33N 48°49' W 123°21'8 8.4
2015-Aug-26 11:33N 48°41' W 123°24'0 0.0
2015-Aug-26 10:33N 48°41' W 123°24'3 3.4
2015-Aug-26 09:33N 48°44' W 123°21'9 9.1
2015-Aug-26 08:33N 48°53' W 123°18'10 9.9
2015-Aug-26 07:33N 49°02' W 123°20'8 7.9
2015-Aug-26 06:33N 49°07' W 123°10'5 5.4
2015-Aug-26 05:33N 49°09' W 123°02'0 0.1
2015-Aug-26 04:33N 49°09' W 123°02'0 0.0
2015-Aug-26 03:33N 49°09' W 123°02'0 0.0
2015-Aug-26 02:33N 49°09' W 123°02'0 0.0
2015-Aug-26 01:33N 49°09' W 123°02'0 0.0
2015-Aug-26 00:33N 49°09' W 123°02'0 0.0
2015-Aug-25 23:33N 49°09' W 123°02'0 0.0
2015-Aug-25 22:33N 49°09' W 123°02'0 0.0
2015-Aug-25 21:34N 49°09' W 123°02'0 0.0
2015-Aug-25 20:33N 49°09' W 123°02'0 0.0
2015-Aug-25 19:34N 49°09' W 123°02'0 0.0
2015-Aug-25 18:33N 49°09' W 123°02'0 0.0
2015-Aug-25 17:33N 49°09' W 123°02'0 0.0
2015-Aug-25 16:33N 49°09' W 123°02'5 5.4
2015-Aug-25 15:33N 49°07' W 123°10'6 5.8
2015-Aug-25 14:33N 49°06' W 123°19'9 8.7
2015-Aug-25 13:33N 48°57' W 123°19'7 7.5
2015-Aug-25 12:34N 48°50' W 123°21'9 8.7
2015-Aug-25 11:33N 48°42' W 123°24'0 0.2
2015-Aug-25 10:33N 48°41' W 123°24'3 2.7
2015-Aug-25 09:33N 48°43' W 123°21'9 9.4
2015-Aug-25 08:33N 48°52' W 123°18'1110.6
2015-Aug-25 07:33N 49°03' W 123°20'8 7.9
2015-Aug-25 06:33N 49°07' W 123°10'5 5.3
2015-Aug-25 05:33N 49°09' W 123°02'0 0.1
2015-Aug-25 04:33N 49°09' W 123°02'0 0.0
2015-Aug-25 03:33N 49°09' W 123°02'0 0.0
2015-Aug-25 02:33N 49°09' W 123°02'0 0.0
2015-Aug-25 01:33N 49°09' W 123°02'0 0.0
2015-Aug-25 00:33N 49°09' W 123°02'0 0.0
2015-Aug-24 23:33N 49°09' W 123°02'0 0.0
2015-Aug-24 22:33N 49°09' W 123°02'0 0.0
2015-Aug-24 21:33N 49°09' W 123°02'0 0.0
2015-Aug-24 20:33N 49°09' W 123°02'0 0.0
2015-Aug-24 19:33N 49°09' W 123°02'0 0.0
2015-Aug-24 18:33N 49°09' W 123°02'0 0.0
2015-Aug-24 17:33N 49°09' W 123°02'0 0.0
2015-Aug-24 16:33N 49°09' W 123°02'0 0.0
2015-Aug-24 15:33N 49°09' W 123°02'0 0.0
2015-Aug-24 14:33N 49°09' W 123°02'0 0.0
2015-Aug-24 13:33N 49°09' W 123°02'0 0.0
2015-Aug-24 12:33N 49°09' W 123°02'0 0.0
2015-Aug-24 11:33N 49°09' W 123°02'0 0.0
2015-Aug-24 10:33N 49°09' W 123°02'0 0.0
2015-Aug-24 09:33N 49°09' W 123°02'0 0.0
2015-Aug-24 08:33N 49°09' W 123°02'0 0.0
2015-Aug-24 07:33N 49°09' W 123°02'0 0.0
2015-Aug-24 06:33N 49°09' W 123°02'0 0.0
2015-Aug-24 05:33N 49°09' W 123°02'0 0.0
2015-Aug-24 04:33N 49°09' W 123°02'0 0.0
2015-Aug-24 03:33N 49°09' W 123°02'0 0.0
2015-Aug-24 02:33N 49°09' W 123°02'0 0.0
2015-Aug-24 01:33N 49°09' W 123°02'0 0.0
2015-Aug-24 00:33N 49°09' W 123°02'0 0.0
2015-Aug-23 23:33N 49°09' W 123°02'0 0.0
2015-Aug-23 22:33N 49°09' W 123°02'0 0.0
2015-Aug-23 21:34N 49°09' W 123°02'0 0.0
2015-Aug-23 20:33N 49°09' W 123°02'0 0.0
2015-Aug-23 19:33N 49°09' W 123°02'0 0.0
2015-Aug-23 18:33N 49°09' W 123°02'0 0.0
2015-Aug-23 17:33N 49°09' W 123°02'0 0.0
2015-Aug-23 16:33N 49°09' W 123°02'0 0.0
2015-Aug-23 15:33N 49°09' W 123°02'0 0.0
2015-Aug-23 14:33N 49°09' W 123°02'0 0.0
2015-Aug-23 13:33N 49°09' W 123°02'0 0.0
2015-Aug-23 12:33N 49°09' W 123°02'0 0.0
2015-Aug-23 11:33N 49°09' W 123°02'0 0.0
2015-Aug-23 10:34N 49°09' W 123°02'0 0.0
2015-Aug-23 09:33N 49°09' W 123°02'0 0.0
2015-Aug-23 08:33N 49°09' W 123°02'0 0.0
2015-Aug-23 07:33N 49°09' W 123°02'0 0.0
2015-Aug-23 06:33N 49°09' W 123°02'0 0.0
2015-Aug-23 05:33N 49°09' W 123°02'0 0.0
2015-Aug-23 04:34N 49°09' W 123°02'0 0.0
2015-Aug-23 03:33N 49°09' W 123°02'0 0.0
2015-Aug-23 02:33N 49°09' W 123°02'0 0.0
2015-Aug-23 01:33N 49°09' W 123°02'0 0.0
2015-Aug-23 00:34N 49°09' W 123°02'0 0.0
2015-Aug-22 23:33N 49°09' W 123°02'0 0.0
2015-Aug-22 22:33N 49°09' W 123°02'0 0.0
2015-Aug-22 21:33N 49°09' W 123°02'0 0.0
2015-Aug-22 20:33N 49°09' W 123°02'0 0.0
2015-Aug-22 19:33N 49°09' W 123°02'0 0.0
2015-Aug-22 18:33N 49°09' W 123°02'0 0.0
2015-Aug-22 17:33N 49°09' W 123°02'0 0.0
2015-Aug-22 16:33N 49°09' W 123°02'2 1.5
2015-Aug-22 15:33N 49°08' W 123°04'8 7.7
2015-Aug-22 14:34N 49°07' W 123°16'8 8.3
2015-Aug-22 13:33N 48°59' W 123°18'9 8.9
2015-Aug-22 12:33N 48°50' W 123°21'9 8.9
2015-Aug-22 11:33N 48°42' W 123°24'0 0.5
2015-Aug-22 10:33N 48°41' W 123°24'3 2.7
2015-Aug-22 09:33N 48°43' W 123°21'10 9.9
2015-Aug-22 08:33N 48°53' W 123°18'1010.5
2015-Aug-22 07:33N 49°03' W 123°20'8 7.9
2015-Aug-22 06:33N 49°07' W 123°10'5 5.3
2015-Aug-22 05:33N 49°09' W 123°02'0 0.1
2015-Aug-22 04:33N 49°09' W 123°02'0 0.0
2015-Aug-22 03:33N 49°09' W 123°02'0 0.0
2015-Aug-22 02:33N 49°09' W 123°02'0 0.0
2015-Aug-22 01:33N 49°09' W 123°02'0 0.0
2015-Aug-22 00:33N 49°09' W 123°02'0 0.0
2015-Aug-21 23:33N 49°09' W 123°02'0 0.0
2015-Aug-21 22:33N 49°09' W 123°02'0 0.0
2015-Aug-21 21:33N 49°09' W 123°02'0 0.0
2015-Aug-21 20:33N 49°09' W 123°02'0 0.0
2015-Aug-21 19:33N 49°09' W 123°02'0 0.0
2015-Aug-21 18:33N 49°09' W 123°02'0 0.0
2015-Aug-21 17:33N 49°09' W 123°02'0 0.0
2015-Aug-21 16:33N 49°09' W 123°02'3 3.2
2015-Aug-21 15:33N 49°07' W 123°06'9 8.7
2015-Aug-21 14:33N 49°06' W 123°19'8 7.9
2015-Aug-21 13:33N 48°58' W 123°20'8 8.4
2015-Aug-21 12:33N 48°50' W 123°21'9 8.9
2015-Aug-21 11:33N 48°41' W 123°24'0 0.1
2015-Aug-21 10:33N 48°41' W 123°24'3 3.3
2015-Aug-21 09:33N 48°44' W 123°21'9 9.5
2015-Aug-21 08:33N 48°53' W 123°18'1110.9
2015-Aug-21 07:33N 49°04' W 123°22'9 9.0
2015-Aug-21 06:33N 49°07' W 123°09'5 4.9
2015-Aug-21 05:33N 49°09' W 123°02'0 0.0
2015-Aug-21 04:33N 49°09' W 123°02'  
Track history (hours):
 
Tides and Currents Weather Stations Pressure Air Temp Water Temp Dewpoint Dewpoint Depression Visibility Wind Speed Wind Dir Waves Ship Positions

Arctic Taglu

Last reported at 2015-Aug-31 04:33 UTC. Time now 2015-Aug-31 04:45 UTC.
Position N 49°09' W 123°02'.

Length 33 m; draft 6 m.

Type: Tug. MMSI: 316003483.

Date/timePositionNaut miles runAvg speedWind from/ knotsBaromVisibWave heightAir tempDewpointWater temp
2015-Aug-31 04:33N 49°09' W 123°02'0 0.0
2015-Aug-31 03:33N 49°09' W 123°02'0 0.0
2015-Aug-31 02:33N 49°09' W 123°02'0 0.0
2015-Aug-31 01:33N 49°09' W 123°02'0 0.0
2015-Aug-31 00:33N 49°09' W 123°02'0 0.0
2015-Aug-30 23:33N 49°09' W 123°02'0 0.0
2015-Aug-30 22:33N 49°09' W 123°02'0 0.0
2015-Aug-30 21:33N 49°09' W 123°02'0 0.0
2015-Aug-30 20:33N 49°09' W 123°02'0 0.0
2015-Aug-30 19:33N 49°09' W 123°02'0 0.0
2015-Aug-30 16:20N 49°09' W 123°02'0 0.0
2015-Aug-30 15:32N 49°09' W 123°02'0 0.0
2015-Aug-30 13:14N 49°09' W 123°02'0 0.0
2015-Aug-30 12:14N 49°09' W 123°02'0 0.0
2015-Aug-30 11:27N 49°09' W 123°02'0 0.0
2015-Aug-30 05:29N 49°09' W 123°02'0 0.0
2015-Aug-30 04:26N 49°09' W 123°02'0 0.0
2015-Aug-30 03:28N 49°09' W 123°02'0 0.0
2015-Aug-30 02:20N 49°09' W 123°02'0 0.0
2015-Aug-30 01:33N 49°09' W 123°02'0 0.0
2015-Aug-29 22:21N 49°09' W 123°02'0 0.0
2015-Aug-29 21:10N 49°09' W 123°02'0 0.0
2015-Aug-29 20:26N 49°09' W 123°02'0 0.0
2015-Aug-29 19:34N 49°09' W 123°02'0 0.0
2015-Aug-29 18:33N 49°09' W 123°02'0 0.0
2015-Aug-29 17:33N 49°09' W 123°02'2 1.7
2015-Aug-29 16:33N 49°08' W 123°04'6 6.3
2015-Aug-29 15:33N 49°08' W 123°14'8 7.9
2015-Aug-29 14:33N 49°01' W 123°19'9 9.2
2015-Aug-29 13:33N 48°52' W 123°19'8 8.2
2015-Aug-29 12:33N 48°44' W 123°24'3 2.4
2015-Aug-29 11:29N 48°41' W 123°24'0 0.0
2015-Aug-29 10:28N 48°41' W 123°24'5 5.4
2015-Aug-29 09:33N 48°46' W 123°21'8 7.6
2015-Aug-29 08:33N 48°53' W 123°18'9 9.4
2015-Aug-29 07:34N 49°02' W 123°21'8 8.1
2015-Aug-29 06:33N 49°07' W 123°10'6 5.8
2015-Aug-29 05:33N 49°09' W 123°02'0 0.0
2015-Aug-29 04:33N 49°09' W 123°02'0 0.0
2015-Aug-29 03:33N 49°09' W 123°02'0 0.0
2015-Aug-29 02:33N 49°09' W 123°02'0 0.0
2015-Aug-29 01:33N 49°09' W 123°02'0 0.0
2015-Aug-29 00:33N 49°09' W 123°02'0 0.0
2015-Aug-28 23:33N 49°09' W 123°02'0 0.0
2015-Aug-28 22:33N 49°09' W 123°02'0 0.0
2015-Aug-28 21:34N 49°09' W 123°02'0 0.0
2015-Aug-28 20:33N 49°09' W 123°02'0 0.0
2015-Aug-28 19:33N 49°09' W 123°02'0 0.0
2015-Aug-28 18:34N 49°09' W 123°02'0 0.0
2015-Aug-28 17:33N 49°09' W 123°02'0 0.0
2015-Aug-28 16:34N 49°09' W 123°02'4 4.0
2015-Aug-28 15:33N 49°07' W 123°08'6 6.2
2015-Aug-28 14:34N 49°07' W 123°17'9 8.5
2015-Aug-28 13:33N 48°58' W 123°19'8 7.5
2015-Aug-28 12:33N 48°51' W 123°21'9 9.5
2015-Aug-28 11:34N 48°42' W 123°24'0 0.3
2015-Aug-28 10:33N 48°41' W 123°24'5 4.6
2015-Aug-28 09:34N 48°45' W 123°21'8 7.8
2015-Aug-28 08:33N 48°53' W 123°18'9 9.4
2015-Aug-28 07:33N 49°02' W 123°20'8 7.6
2015-Aug-28 06:34N 49°07' W 123°11'6 6.2
2015-Aug-28 05:33N 49°09' W 123°02'0 0.1
2015-Aug-28 04:33N 49°09' W 123°02'0 0.0
2015-Aug-28 03:33N 49°09' W 123°02'0 0.0
2015-Aug-28 02:33N 49°09' W 123°02'0 0.0
2015-Aug-28 01:33N 49°09' W 123°02'0 0.0
2015-Aug-28 00:33N 49°09' W 123°02'0 0.0
2015-Aug-27 23:33N 49°09' W 123°02'0 0.0
2015-Aug-27 22:33N 49°09' W 123°02'0 0.0
2015-Aug-27 21:33N 49°09' W 123°02'0 0.0
2015-Aug-27 20:33N 49°09' W 123°02'0 0.0
2015-Aug-27 19:33N 49°09' W 123°02'0 0.0
2015-Aug-27 18:33N 49°09' W 123°02'0 0.0
2015-Aug-27 17:33N 49°09' W 123°02'0 0.5
2015-Aug-27 16:34N 49°08' W 123°03'6 5.6
2015-Aug-27 15:33N 49°07' W 123°11'5 4.7
2015-Aug-27 14:34N 49°06' W 123°18'9 9.0
2015-Aug-27 13:33N 48°57' W 123°19'7 7.2
2015-Aug-27 12:33N 48°50' W 123°21'9 9.0
2015-Aug-27 11:34N 48°41' W 123°24'0 0.1
2015-Aug-27 10:34N 48°41' W 123°24'5 4.8
2015-Aug-27 09:33N 48°45' W 123°21'9 8.6
2015-Aug-27 08:34N 48°54' W 123°18'10 9.6
2015-Aug-27 07:33N 49°03' W 123°20'9 8.8
2015-Aug-27 06:33N 49°06' W 123°08'4 4.2
2015-Aug-27 05:33N 49°09' W 123°02'0 0.0
2015-Aug-27 04:33N 49°09' W 123°02'0 0.0
2015-Aug-27 03:33N 49°09' W 123°02'0 0.0
2015-Aug-27 02:33N 49°09' W 123°02'0 0.0
2015-Aug-27 01:33N 49°09' W 123°02'0 0.0
2015-Aug-27 00:34N 49°09' W 123°02'0 0.0
2015-Aug-26 23:33N 49°09' W 123°02'0 0.0
2015-Aug-26 22:33N 49°09' W 123°02'0 0.0
2015-Aug-26 21:33N 49°09' W 123°02'0 0.0
2015-Aug-26 20:33N 49°09' W 123°02'0 0.0
2015-Aug-26 19:33N 49°09' W 123°02'0 0.0
2015-Aug-26 18:33N 49°09' W 123°02'0 0.0
2015-Aug-26 17:33N 49°09' W 123°02'0 0.0
2015-Aug-26 16:33N 49°09' W 123°02'6 5.8
2015-Aug-26 15:33N 49°07' W 123°11'6 5.6
2015-Aug-26 14:33N 49°06' W 123°19'9 9.3
2015-Aug-26 13:33N 48°57' W 123°19'7 7.2
2015-Aug-26 12:33N 48°49' W 123°21'8 8.4
2015-Aug-26 11:33N 48°41' W 123°24'0 0.0
2015-Aug-26 10:33N 48°41' W 123°24'3 3.4
2015-Aug-26 09:33N 48°44' W 123°21'9 9.1
2015-Aug-26 08:33N 48°53' W 123°18'10 9.9
2015-Aug-26 07:33N 49°02' W 123°20'8 7.9
2015-Aug-26 06:33N 49°07' W 123°10'5 5.4
2015-Aug-26 05:33N 49°09' W 123°02'0 0.1
2015-Aug-26 04:33N 49°09' W 123°02'0 0.0
2015-Aug-26 03:33N 49°09' W 123°02'0 0.0
2015-Aug-26 02:33N 49°09' W 123°02'0 0.0
2015-Aug-26 01:33N 49°09' W 123°02'0 0.0
2015-Aug-26 00:33N 49°09' W 123°02'0 0.0
2015-Aug-25 23:33N 49°09' W 123°02'0 0.0
2015-Aug-25 22:33N 49°09' W 123°02'0 0.0
2015-Aug-25 21:34N 49°09' W 123°02'0 0.0
2015-Aug-25 20:33N 49°09' W 123°02'0 0.0
2015-Aug-25 19:34N 49°09' W 123°02'0 0.0
2015-Aug-25 18:33N 49°09' W 123°02'0 0.0
2015-Aug-25 17:33N 49°09' W 123°02'0 0.0
2015-Aug-25 16:33N 49°09' W 123°02'5 5.4
2015-Aug-25 15:33N 49°07' W 123°10'6 5.8
2015-Aug-25 14:33N 49°06' W 123°19'9 8.7
2015-Aug-25 13:33N 48°57' W 123°19'7 7.5
2015-Aug-25 12:34N 48°50' W 123°21'9 8.7
2015-Aug-25 11:33N 48°42' W 123°24'0 0.2
2015-Aug-25 10:33N 48°41' W 123°24'3 2.7
2015-Aug-25 09:33N 48°43' W 123°21'9 9.4
2015-Aug-25 08:33N 48°52' W 123°18'1110.6
2015-Aug-25 07:33N 49°03' W 123°20'8 7.9
2015-Aug-25 06:33N 49°07' W 123°10'5 5.3
2015-Aug-25 05:33N 49°09' W 123°02'0 0.1
2015-Aug-25 04:33N 49°09' W 123°02'0 0.0
2015-Aug-25 03:33N 49°09' W 123°02'0 0.0
2015-Aug-25 02:33N 49°09' W 123°02'0 0.0
2015-Aug-25 01:33N 49°09' W 123°02'0 0.0
2015-Aug-25 00:33N 49°09' W 123°02'0 0.0
2015-Aug-24 23:33N 49°09' W 123°02'0 0.0
2015-Aug-24 22:33N 49°09' W 123°02'0 0.0
2015-Aug-24 21:33N 49°09' W 123°02'0 0.0
2015-Aug-24 20:33N 49°09' W 123°02'0 0.0
2015-Aug-24 19:33N 49°09' W 123°02'0 0.0
2015-Aug-24 18:33N 49°09' W 123°02'0 0.0
2015-Aug-24 17:33N 49°09' W 123°02'0 0.0
2015-Aug-24 16:33N 49°09' W 123°02'0 0.0
2015-Aug-24 15:33N 49°09' W 123°02'0 0.0
2015-Aug-24 14:33N 49°09' W 123°02'0 0.0
2015-Aug-24 13:33N 49°09' W 123°02'0 0.0
2015-Aug-24 12:33N 49°09' W 123°02'0 0.0
2015-Aug-24 11:33N 49°09' W 123°02'0 0.0
2015-Aug-24 10:33N 49°09' W 123°02'0 0.0
2015-Aug-24 09:33N 49°09' W 123°02'0 0.0
2015-Aug-24 08:33N 49°09' W 123°02'0 0.0
2015-Aug-24 07:33N 49°09' W 123°02'0 0.0
2015-Aug-24 06:33N 49°09' W 123°02'0 0.0
2015-Aug-24 05:33N 49°09' W 123°02'0 0.0
2015-Aug-24 04:33N 49°09' W 123°02'0 0.0
2015-Aug-24 03:33N 49°09' W 123°02'0 0.0
2015-Aug-24 02:33N 49°09' W 123°02'0 0.0
2015-Aug-24 01:33N 49°09' W 123°02'0 0.0
2015-Aug-24 00:33N 49°09' W 123°02'0 0.0
2015-Aug-23 23:33N 49°09' W 123°02'0 0.0
2015-Aug-23 22:33N 49°09' W 123°02'0 0.0
2015-Aug-23 21:34N 49°09' W 123°02'0 0.0
2015-Aug-23 20:33N 49°09' W 123°02'0 0.0
2015-Aug-23 19:33N 49°09' W 123°02'0 0.0
2015-Aug-23 18:33N 49°09' W 123°02'0 0.0
2015-Aug-23 17:33N 49°09' W 123°02'0 0.0
2015-Aug-23 16:33N 49°09' W 123°02'0 0.0
2015-Aug-23 15:33N 49°09' W 123°02'0 0.0
2015-Aug-23 14:33N 49°09' W 123°02'0 0.0
2015-Aug-23 13:33N 49°09' W 123°02'0 0.0
2015-Aug-23 12:33N 49°09' W 123°02'0 0.0
2015-Aug-23 11:33N 49°09' W 123°02'0 0.0
2015-Aug-23 10:34N 49°09' W 123°02'0 0.0
2015-Aug-23 09:33N 49°09' W 123°02'0 0.0
2015-Aug-23 08:33N 49°09' W 123°02'0 0.0
2015-Aug-23 07:33N 49°09' W 123°02'0 0.0
2015-Aug-23 06:33N 49°09' W 123°02'0 0.0
2015-Aug-23 05:33N 49°09' W 123°02'0 0.0
2015-Aug-23 04:34N 49°09' W 123°02'0 0.0
2015-Aug-23 03:33N 49°09' W 123°02'0 0.0
2015-Aug-23 02:33N 49°09' W 123°02'0 0.0
2015-Aug-23 01:33N 49°09' W 123°02'0 0.0
2015-Aug-23 00:34N 49°09' W 123°02'0 0.0
2015-Aug-22 23:33N 49°09' W 123°02'0 0.0
2015-Aug-22 22:33N 49°09' W 123°02'0 0.0
2015-Aug-22 21:33N 49°09' W 123°02'0 0.0
2015-Aug-22 20:33N 49°09' W 123°02'0 0.0
2015-Aug-22 19:33N 49°09' W 123°02'0 0.0
2015-Aug-22 18:33N 49°09' W 123°02'0 0.0
2015-Aug-22 17:33N 49°09' W 123°02'0 0.0
2015-Aug-22 16:33N 49°09' W 123°02'2 1.5
2015-Aug-22 15:33N 49°08' W 123°04'8 7.7
2015-Aug-22 14:34N 49°07' W 123°16'8 8.3
2015-Aug-22 13:33N 48°59' W 123°18'9 8.9
2015-Aug-22 12:33N 48°50' W 123°21'9 8.9
2015-Aug-22 11:33N 48°42' W 123°24'0 0.5
2015-Aug-22 10:33N 48°41' W 123°24'3 2.7
2015-Aug-22 09:33N 48°43' W 123°21'10 9.9
2015-Aug-22 08:33N 48°53' W 123°18'1010.5
2015-Aug-22 07:33N 49°03' W 123°20'8 7.9
2015-Aug-22 06:33N 49°07' W 123°10'5 5.3
2015-Aug-22 05:33N 49°09' W 123°02'0 0.1
2015-Aug-22 04:33N 49°09' W 123°02'0 0.0
2015-Aug-22 03:33N 49°09' W 123°02'0 0.0
2015-Aug-22 02:33N 49°09' W 123°02'0 0.0
2015-Aug-22 01:33N 49°09' W 123°02'0 0.0
2015-Aug-22 00:33N 49°09' W 123°02'0 0.0
2015-Aug-21 23:33N 49°09' W 123°02'0 0.0
2015-Aug-21 22:33N 49°09' W 123°02'0 0.0
2015-Aug-21 21:33N 49°09' W 123°02'0 0.0
2015-Aug-21 20:33N 49°09' W 123°02'0 0.0
2015-Aug-21 19:33N 49°09' W 123°02'0 0.0
2015-Aug-21 18:33N 49°09' W 123°02'0 0.0
2015-Aug-21 17:33N 49°09' W 123°02'0 0.0
2015-Aug-21 16:33N 49°09' W 123°02'3 3.2
2015-Aug-21 15:33N 49°07' W 123°06'9 8.7
2015-Aug-21 14:33N 49°06' W 123°19'8 7.9
2015-Aug-21 13:33N 48°58' W 123°20'8 8.4
2015-Aug-21 12:33N 48°50' W 123°21'9 8.9
2015-Aug-21 11:33N 48°41' W 123°24'0 0.1
2015-Aug-21 10:33N 48°41' W 123°24'3 3.3
2015-Aug-21 09:33N 48°44' W 123°21'9 9.5
2015-Aug-21 08:33N 48°53' W 123°18'1110.9
2015-Aug-21 07:33N 49°04' W 123°22'9 9.0
2015-Aug-21 06:33N 49°07' W 123°09'5 4.9
2015-Aug-21 05:33N 49°09' W 123°02'0 0.0
2015-Aug-21 04:33N 49°09' W 123°02'  

Dump ship's entire track history